Latest Aviation Weather Report (METAR)

METAR VMMC 250330Z 20010KT 9999 FEW015 SCT030 30/26 Q1008 NOSIG=

Decoded METAR in plain language
Contents of Report Code Information
Report Type METAR Aviation Routine Weather Report
Location VMMC Macao, China
Time of the Observation 250330Z 25/06/2018 03:30:00 UTC
Surface Wind Direction and Speed 20010KT mean direction 200 degrees, speed 10 knots
Visibility 9999 10 kilometres or more
Present Weather    
Cloud FEW015 SCT030 amount 1-2 oktas; base 1500 feet
amount 3-4 oktas; base 3000 feet
Air Temperature and Dew-Point Temperature 30/26 air temperature 30°C
dew point temperature 26°C
Pressure (QNH) Q1008 1008 hPa
Trend Forecasts During Next Two Hours NOSIG no significant changes

OTHER INTERNATIONAL AIRPORTS:
Weather Forecast (TAF)   Weather Report (METAR)